Time;durP1;ratioP1;P1;durP2;ratioP2;P2;SDS_P1;SDS_P2;PMS_P1;PMS_P2;Temp;Humidity;BMP_temperature;BMP_pressure;BME280_temperature;BME280_humidity;BME280_pressure;Samples;Min_cycle;Max_cycle;Signal;HPM_P1;HPM_P2
2023/08/10 00:00:54;;;;;;;1.27;1.17;;;19.50;99.90;;;;;;5063853;28;20045;-82
2023/08/10 00:03:20;;;;;;;0.10;0.10;;;19.40;99.90;;;;;;5062097;28;20085;-77
2023/08/10 00:05:47;;;;;;;0.38;0.38;;;;;;;;;;5062010;28;20039;-78
2023/08/10 00:08:12;;;;;;;0.20;0.20;;;19.30;99.90;;;;;;5043637;28;20033;-83
2023/08/10 00:10:38;;;;;;;0.10;0.10;;;19.10;99.90;;;;;;5063372;28;20705;-76
2023/08/10 00:13:05;;;;;;;0.10;0.10;;;;;;;;;;5044564;28;20021;-77
2023/08/10 00:15:31;;;;;;;0.30;0.30;;;19.30;99.90;;;;;;5064031;28;20049;-76
2023/08/10 00:17:57;;;;;;;0.10;0.10;;;18.70;99.90;;;;;;5062583;28;20607;-79
2023/08/10 00:20:24;;;;;;;0.32;0.32;;;19.00;99.90;;;;;;5044343;28;20054;-76
2023/08/10 00:22:52;;;;;;;0.10;0.10;;;19.00;99.90;;;;;;5061861;28;20033;-77
2023/08/10 00:25:18;;;;;;;0.95;0.95;;;;;;;;;;5043623;28;20037;-79
2023/08/10 00:27:44;;;;;;;0.20;0.20;;;19.00;99.90;;;;;;5044709;28;20086;-76
2023/08/10 00:30:10;;;;;;;0.10;0.10;;;17.90;99.90;;;;;;5062718;28;20406;-85
2023/08/10 00:32:36;;;;;;;0.10;0.10;;;19.00;99.90;;;;;;5061965;28;20020;-87
2023/08/10 00:35:03;;;;;;;0.10;0.10;;;19.00;99.90;;;;;;5061368;28;20767;-80
2023/08/10 00:37:29;;;;;;;0.10;0.10;;;19.80;99.90;;;;;;5062571;28;20031;-78
2023/08/10 00:39:55;;;;;;;0.10;0.10;;;19.10;99.90;;;;;;5063625;28;20433;-85
2023/08/10 00:42:21;;;;;;;0.20;0.20;;;19.00;99.90;;;;;;5064827;28;20086;-75
2023/08/10 00:44:47;;;;;;;0.95;0.95;;;19.10;99.90;;;;;;5063372;28;20021;-77
2023/08/10 00:47:14;;;;;;;0.10;0.10;;;19.20;99.90;;;;;;5063175;28;20024;-78
2023/08/10 00:49:41;;;;;;;0.10;0.10;;;19.20;99.90;;;;;;5043967;28;20036;-75
2023/08/10 00:52:07;;;;;;;0.10;0.10;;;19.10;99.90;;;;;;5063563;28;20031;-77
2023/08/10 00:54:34;;;;;;;0.10;0.10;;;19.50;99.90;;;;;;5063207;28;20709;-76
2023/08/10 00:57:00;;;;;;;0.10;0.10;;;19.90;99.90;;;;;;5060700;28;20651;-85
2023/08/10 00:59:29;;;;;;;0.10;0.10;;;19.30;99.90;;;;;;5063091;28;20017;-76
2023/08/10 01:01:55;;;;;;;0.10;0.10;;;19.30;99.90;;;;;;5061706;28;20052;-76
2023/08/10 01:04:21;;;;;;;0.03;0.03;;;19.40;99.90;;;;;;5062604;28;20216;-82
2023/08/10 01:07:02;;;;;;;0.10;0.10;;;19.40;99.90;;;;;;5067743;28;20615;-86
2023/08/10 01:09:40;;;;;;;0.10;0.10;;;19.40;99.90;;;;;;5063819;28;20016;-76
2023/08/10 01:12:11;;;;;;;0.35;0.35;;;18.10;99.90;;;;;;5062509;28;20508;-76
2023/08/10 01:14:51;;;;;;;0.85;0.85;;;19.50;99.90;;;;;;5061087;28;20021;-77
2023/08/10 01:17:27;;;;;;;0.10;0.10;;;19.20;99.90;;;;;;5060940;28;20020;-79
2023/08/10 01:19:55;;;;;;;0.10;0.10;;;18.90;99.90;;;;;;5060967;28;20016;-79
2023/08/10 01:22:28;;;;;;;0.10;0.10;;;18.60;99.90;;;;;;5042983;28;20040;-84
2023/08/10 01:25:05;;;;;;;0.10;0.10;;;18.80;99.90;;;;;;5060658;28;20624;-78
2023/08/10 01:27:33;;;;;;;0.85;0.85;;;17.60;99.90;;;;;;5061304;28;20048;-85
2023/08/10 01:30:00;;;;;;;0.10;0.10;;;18.60;99.90;;;;;;5060469;28;20020;-80
2023/08/10 01:32:30;;;;;;;0.45;0.45;;;18.70;99.90;;;;;;5059899;28;20110;-79
2023/08/10 01:34:59;;;;;;;0.10;0.10;;;19.10;99.90;;;;;;5061409;28;20013;-76
2023/08/10 01:37:26;;;;;;;0.10;0.10;;;18.30;99.90;;;;;;5060427;28;20495;-76
2023/08/10 01:39:52;;;;;;;0.10;0.10;;;17.10;99.90;;;;;;5042243;28;20024;-76
2023/08/10 01:42:18;;;;;;;0.10;0.10;;;17.40;99.90;;;;;;5059763;28;20021;-80
2023/08/10 01:44:45;;;;;;;0.10;0.10;;;17.30;99.90;;;;;;5060218;28;20059;-82
2023/08/10 01:47:30;;;;;;;0.10;0.10;;;17.70;99.90;;;;;;5061740;28;20024;-77
2023/08/10 01:49:59;;;;;;;0.10;0.10;;;17.90;99.90;;;;;;5060013;28;20112;-76
2023/08/10 01:52:30;;;;;;;0.82;0.82;;;18.00;99.90;;;;;;5060728;28;20021;-76
2023/08/10 01:54:58;;;;;;;0.10;0.10;;;17.40;99.90;;;;;;5043891;28;20044;-76
2023/08/10 01:57:24;;;;;;;0.10;0.10;;;20.50;99.90;;;;;;5060830;28;20036;-78
2023/08/10 01:59:50;;;;;;;0.10;0.10;;;15.00;99.90;;;;;;5060215;28;20706;-80
2023/08/10 02:02:17;;;;;;;0.17;0.17;;;15.80;99.90;;;;;;5042954;28;20047;-78
2023/08/10 02:04:43;;;;;;;0.10;0.10;;;18.10;99.90;;;;;;5060289;28;20410;-76
2023/08/10 02:07:08;;;;;;;0.10;0.10;;;18.40;99.90;;;;;;5062532;28;20021;-77
2023/08/10 02:09:35;;;;;;;0.10;0.10;;;18.40;99.90;;;;;;5042471;28;20048;-80
2023/08/10 02:12:01;;;;;;;0.10;0.10;;;18.60;99.90;;;;;;5061427;28;20213;-76
2023/08/10 02:14:27;;;;;;;0.10;0.10;;;17.90;99.90;;;;;;5060685;28;20039;-75
2023/08/10 02:16:53;;;;;;;0.20;0.20;;;17.90;99.90;;;;;;5059869;28;20024;-84
2023/08/10 02:19:19;;;;;;;0.10;0.10;;;17.70;99.90;;;;;;5061250;28;20238;-77
2023/08/10 02:21:45;;;;;;;0.10;0.10;;;17.70;99.90;;;;;;5042519;28;20039;-78
2023/08/10 02:24:11;;;;;;;0.10;0.10;;;17.30;99.90;;;;;;5059253;28;20229;-82
2023/08/10 02:26:37;;;;;;;0.10;0.10;;;16.30;99.90;;;;;;5059453;28;20017;-77
2023/08/10 02:29:03;;;;;;;0.10;0.10;;;16.80;99.90;;;;;;5059686;28;20028;-76
2023/08/10 02:31:29;;;;;;;0.10;0.10;;;16.10;99.90;;;;;;5061777;28;20055;-78
2023/08/10 02:33:55;;;;;;;0.10;0.10;;;15.50;99.90;;;;;;5060432;28;20060;-78
2023/08/10 02:36:22;;;;;;;0.10;0.10;;;16.30;99.90;;;;;;5061168;28;20025;-75
2023/08/10 02:38:48;;;;;;;0.55;0.55;;;16.50;99.90;;;;;;5044069;28;20025;-83
2023/08/10 02:41:14;;;;;;;1.95;1.85;;;16.90;99.90;;;;;;5060596;28;20108;-84
2023/08/10 02:43:41;;;;;;;0.10;0.10;;;17.50;99.90;;;;;;5059189;28;20075;-82
2023/08/10 02:46:08;;;;;;;0.10;0.10;;;17.60;99.90;;;;;;5060375;28;20051;-78
2023/08/10 02:48:34;;;;;;;0.10;0.10;;;17.50;99.90;;;;;;5043979;28;20031;-75
2023/08/10 02:51:00;;;;;;;0.10;0.10;;;;;;;;;;5061249;28;20025;-75
2023/08/10 02:53:26;;;;;;;0.10;0.10;;;17.40;99.90;;;;;;5042866;28;20028;-77
2023/08/10 02:55:52;;;;;;;0.10;0.10;;;16.60;99.90;;;;;;5060115;28;20058;-79
2023/08/10 02:58:20;;;;;;;0.10;0.10;;;16.20;99.90;;;;;;5059248;28;20044;-79
2023/08/10 03:00:46;;;;;;;0.10;0.10;;;16.10;99.90;;;;;;5059999;28;20033;-78
2023/08/10 03:03:11;;;;;;;0.30;0.30;;;16.10;99.90;;;;;;5061555;28;20039;-81
2023/08/10 03:05:37;;;;;;;0.60;0.60;;;16.40;99.90;;;;;;5042467;28;20111;-77
2023/08/10 03:08:04;;;;;;;0.10;0.10;;;16.60;99.90;;;;;;5059312;28;20221;-76
2023/08/10 03:10:30;;;;;;;0.10;0.10;;;17.00;99.90;;;;;;5059498;28;20367;-78
2023/08/10 03:12:56;;;;;;;0.10;0.10;;;;;;;;;;5060170;28;20017;-76
2023/08/10 03:15:22;;;;;;;0.13;0.13;;;17.50;99.90;;;;;;5059399;28;20021;-79
2023/08/10 03:17:48;;;;;;;0.30;0.30;;;17.80;99.90;;;;;;5062545;28;20028;-80
2023/08/10 03:20:16;;;;;;;0.10;0.10;;;15.20;99.90;;;;;;5063034;28;20026;-83
2023/08/10 03:22:43;;;;;;;0.10;0.10;;;18.20;99.90;;;;;;5062820;28;20321;-82
2023/08/10 03:25:10;;;;;;;0.10;0.10;;;;;;;;;;5048194;28;20302;-75
2023/08/10 03:27:36;;;;;;;0.10;0.10;;;18.20;99.90;;;;;;5065114;28;20025;-75
2023/08/10 03:30:03;;;;;;;0.10;0.10;;;18.40;99.90;;;;;;5045758;28;20740;-79
2023/08/10 03:32:29;;;;;;;0.10;0.10;;;18.50;99.90;;;;;;5063480;28;20479;-78
2023/08/10 03:34:55;;;;;;;0.10;0.10;;;18.90;99.90;;;;;;5044715;28;20252;-77
2023/08/10 03:37:21;;;;;;;0.10;0.10;;;18.30;99.90;;;;;;5064737;28;20051;-77
2023/08/10 03:39:47;;;;;;;0.40;0.40;;;18.40;99.90;;;;;;5046981;28;20671;-76
2023/08/10 03:42:14;;;;;;;0.10;0.10;;;18.40;99.90;;;;;;5066895;28;20040;-79
2023/08/10 03:44:40;;;;;;;0.25;0.25;;;18.40;99.90;;;;;;5066813;28;20194;-78
2023/08/10 03:47:06;;;;;;;0.10;0.10;;;18.50;99.90;;;;;;5065082;28;20111;-76
2023/08/10 03:49:32;;;;;;;0.10;0.10;;;18.40;99.90;;;;;;5046075;28;20025;-78
2023/08/10 03:51:58;;;;;;;0.10;0.10;;;18.50;99.90;;;;;;5063507;28;20023;-77
2023/08/10 03:54:24;;;;;;;10.50;3.60;;;18.60;99.90;;;;;;5063657;28;20020;-80
2023/08/10 03:56:49;;;;;;;0.10;0.10;;;18.30;99.90;;;;;;5044574;28;20017;-77
2023/08/10 03:59:15;;;;;;;0.10;0.10;;;18.30;99.90;;;;;;5062845;28;20024;-78
2023/08/10 04:01:42;;;;;;;0.98;0.98;;;;;;;;;;5062562;28;20048;-78
2023/08/10 04:04:08;;;;;;;1.67;1.65;;;18.40;99.90;;;;;;5063017;28;20602;-79
2023/08/10 04:06:34;;;;;;;0.10;0.10;;;18.30;99.90;;;;;;5062818;28;20017;-82
2023/08/10 04:09:00;;;;;;;2.05;1.13;;;20.10;99.90;;;;;;5061867;28;20275;-76
2023/08/10 04:11:26;;;;;;;0.20;0.20;;;18.60;99.90;;;;;;5062044;28;20024;-85
2023/08/10 04:13:52;;;;;;;0.17;0.17;;;;;;;;;;5061418;28;20298;-78
2023/08/10 04:16:18;;;;;;;0.10;0.10;;;18.60;99.90;;;;;;5061693;28;20024;-76
2023/08/10 04:18:44;;;;;;;0.10;0.10;;;18.40;99.90;;;;;;5064626;28;20244;-82
2023/08/10 04:21:11;;;;;;;0.10;0.10;;;;;;;;;;5061772;28;20020;-79
2023/08/10 04:23:37;;;;;;;0.20;0.20;;;18.70;99.90;;;;;;5062484;28;20029;-75
2023/08/10 04:26:03;;;;;;;0.20;0.20;;;18.80;99.90;;;;;;5062322;28;20502;-76
2023/08/10 04:28:30;;;;;;;1.65;1.55;;;18.70;99.90;;;;;;5061020;28;20036;-75
2023/08/10 04:30:56;;;;;;;5.65;5.28;;;19.10;99.90;;;;;;5061973;28;20031;-76
2023/08/10 04:33:22;;;;;;;0.43;0.40;;;19.00;99.90;;;;;;5061268;28;20402;-75
2023/08/10 04:35:48;;;;;;;0.10;0.10;;;18.90;99.90;;;;;;5061673;28;20504;-76
2023/08/10 04:38:14;;;;;;;0.10;0.10;;;18.90;99.90;;;;;;5061039;28;20027;-76
2023/08/10 04:40:41;;;;;;;0.10;0.10;;;19.00;99.90;;;;;;5061042;28;20429;-75
2023/08/10 04:43:08;;;;;;;0.13;0.13;;;;;;;;;;5060657;28;20718;-77
2023/08/10 04:45:34;;;;;;;2.25;2.05;;;18.90;99.90;;;;;;5062369;28;20028;-76
2023/08/10 04:48:00;;;;;;;4.68;2.28;;;18.90;99.90;;;;;;5062178;28;20044;-75
2023/08/10 04:50:26;;;;;;;0.10;0.10;;;19.00;99.90;;;;;;5061699;28;20276;-78
2023/08/10 04:52:52;;;;;;;1.42;1.33;;;18.80;99.90;;;;;;5062008;28;20032;-77
2023/08/10 04:55:19;;;;;;;0.10;0.10;;;18.90;99.90;;;;;;5044700;28;20032;-77
2023/08/10 04:57:45;;;;;;;0.10;0.10;;;18.90;99.90;;;;;;5043032;28;20264;-82
2023/08/10 05:00:14;;;;;;;0.10;0.10;;;19.40;99.90;;;;;;5061536;28;20048;-75
2023/08/10 05:02:41;;;;;;;0.45;0.45;;;18.90;99.90;;;;;;5044112;28;20047;-76
2023/08/10 05:05:09;;;;;;;0.10;0.10;;;19.10;99.90;;;;;;5042842;28;20102;-79
2023/08/10 05:07:37;;;;;;;0.40;0.40;;;18.60;99.90;;;;;;5044526;28;20016;-82
2023/08/10 05:10:05;;;;;;;0.10;0.10;;;18.60;99.90;;;;;;5044672;28;20056;-81
2023/08/10 05:12:34;;;;;;;0.10;0.10;;;19.00;99.90;;;;;;5062434;28;20020;-76
2023/08/10 05:15:00;;;;;;;0.28;0.28;;;18.80;99.90;;;;;;5059915;28;20074;-86
2023/08/10 05:17:26;;;;;;;0.10;0.10;;;18.80;99.90;;;;;;5061414;28;20088;-77
2023/08/10 05:19:52;;;;;;;0.10;0.10;;;;;;;;;;5061847;28;20163;-82
2023/08/10 05:22:19;;;;;;;0.10;0.10;;;19.00;99.90;;;;;;5043891;28;20028;-76
2023/08/10 05:24:45;;;;;;;0.28;0.28;;;19.30;99.90;;;;;;5061196;28;20322;-77
2023/08/10 05:27:11;;;;;;;0.50;0.50;;;19.10;99.90;;;;;;5043631;28;20033;-75
2023/08/10 05:29:37;;;;;;;1.40;1.33;;;18.00;99.90;;;;;;5062034;28;20047;-76
2023/08/10 05:32:04;;;;;;;0.15;0.15;;;19.00;99.90;;;;;;5061275;28;20016;-76
2023/08/10 05:34:30;;;;;;;0.10;0.10;;;17.20;99.90;;;;;;5043854;28;20096;-78
2023/08/10 05:36:56;;;;;;;0.52;0.52;;;19.50;99.90;;;;;;5061930;28;20028;-79
2023/08/10 05:39:23;;;;;;;0.10;0.10;;;19.50;99.90;;;;;;5060716;28;20016;-81
2023/08/10 05:41:48;;;;;;;0.20;0.20;;;19.20;99.90;;;;;;5042450;28;20025;-76
2023/08/10 05:44:15;;;;;;;0.10;0.10;;;19.10;99.90;;;;;;5061528;28;20039;-76
2023/08/10 05:46:41;;;;;;;0.10;0.10;;;19.10;99.90;;;;;;5061972;28;20023;-77
2023/08/10 05:49:07;;;;;;;11.98;5.47;;;19.10;99.90;;;;;;5059309;28;20031;-76
2023/08/10 05:51:33;;;;;;;0.22;0.22;;;18.80;99.90;;;;;;5058802;28;20021;-75
2023/08/10 05:53:59;;;;;;;0.20;0.20;;;18.80;99.90;;;;;;5059313;28;20033;-80
2023/08/10 05:56:26;;;;;;;0.20;0.20;;;18.70;99.90;;;;;;5059688;28;20095;-78
2023/08/10 05:58:52;;;;;;;0.10;0.10;;;19.10;99.90;;;;;;5061441;28;20017;-82
2023/08/10 06:01:18;;;;;;;0.10;0.10;;;18.90;99.90;;;;;;5060453;28;20382;-79
2023/08/10 06:03:44;;;;;;;0.45;0.45;;;19.00;99.90;;;;;;5041324;28;20119;-79
2023/08/10 06:06:10;;;;;;;0.70;0.65;;;18.90;99.90;;;;;;5059658;28;20218;-81
2023/08/10 06:08:36;;;;;;;0.10;0.10;;;18.90;99.90;;;;;;5059942;28;20131;-75
2023/08/10 06:11:02;;;;;;;0.10;0.10;;;18.80;99.90;;;;;;5059625;28;20520;-75
2023/08/10 06:13:30;;;;;;;0.10;0.10;;;;;;;;;;5059477;28;20230;-78
2023/08/10 06:15:56;;;;;;;0.10;0.10;;;18.50;99.90;;;;;;5060061;28;20013;-84
2023/08/10 06:18:23;;;;;;;0.10;0.10;;;18.60;99.90;;;;;;5060390;28;20320;-83
2023/08/10 06:20:49;;;;;;;0.45;0.45;;;19.20;99.90;;;;;;5058814;28;20173;-82
2023/08/10 06:23:15;;;;;;;0.10;0.10;;;19.00;99.90;;;;;;5059561;28;20135;-75
2023/08/10 06:25:41;;;;;;;0.15;0.15;;;19.20;99.90;;;;;;5042000;28;20024;-78
2023/08/10 06:28:07;;;;;;;0.20;0.20;;;19.70;99.90;;;;;;5060966;28;20024;-78
2023/08/10 06:30:34;;;;;;;0.13;0.13;;;19.40;99.90;;;;;;5060994;28;20186;-77
2023/08/10 06:33:01;;;;;;;6.80;3.00;;;19.10;99.90;;;;;;5042853;28;20028;-80
2023/08/10 06:35:27;;;;;;;0.13;0.13;;;17.30;99.90;;;;;;5060341;28;20348;-83
2023/08/10 06:37:53;;;;;;;0.20;0.20;;;18.50;99.90;;;;;;5059431;28;20670;-76
2023/08/10 06:40:21;;;;;;;2.55;1.40;;;18.00;99.90;;;;;;5059248;28;20047;-77
2023/08/10 06:42:49;;;;;;;0.10;0.10;;;18.40;99.90;;;;;;5040256;28;20427;-78
2023/08/10 06:45:15;;;;;;;1.23;1.20;;;17.80;99.90;;;;;;5059598;28;20574;-79
2023/08/10 06:47:44;;;;;;;0.13;0.13;;;17.60;99.90;;;;;;5046032;28;20042;-77
2023/08/10 06:50:10;;;;;;;0.55;0.55;;;17.50;99.90;;;;;;5061578;28;20016;-83
2023/08/10 06:52:36;;;;;;;1.48;1.38;;;17.50;99.90;;;;;;5083181;28;20653;-77
2023/08/10 06:55:04;;;;;;;0.25;0.25;;;17.40;99.90;;;;;;5064814;28;20024;-78
2023/08/10 06:57:31;;;;;;;0.10;0.10;;;17.40;99.90;;;;;;5065887;28;20016;-76
2023/08/10 06:59:57;;;;;;;0.10;0.10;;;17.40;99.90;;;;;;5082243;28;20568;-80
2023/08/10 07:02:23;;;;;;;0.10;0.10;;;17.90;99.90;;;;;;5064798;28;20051;-78
2023/08/10 07:04:49;;;;;;;0.40;0.40;;;17.40;99.90;;;;;;5064937;28;20058;-76
2023/08/10 07:07:15;;;;;;;0.65;0.65;;;17.40;99.90;;;;;;5064875;28;20020;-81
2023/08/10 07:09:42;;;;;;;0.10;0.10;;;17.30;99.90;;;;;;5082143;28;20190;-76
2023/08/10 07:12:08;;;;;;;0.55;0.55;;;17.20;99.90;;;;;;5083176;28;20047;-77
2023/08/10 07:14:34;;;;;;;0.10;0.10;;;17.20;99.90;;;;;;5082645;28;20463;-78
2023/08/10 07:17:02;;;;;;;0.10;0.10;;;17.20;99.90;;;;;;5082940;28;20158;-79
2023/08/10 07:19:28;;;;;;;0.13;0.13;;;17.60;99.90;;;;;;5083049;28;20043;-79
2023/08/10 07:21:55;;;;;;;0.45;0.45;;;;;;;;;;5083339;28;20106;-76
2023/08/10 07:24:25;;;;;;;1.05;1.05;;;17.60;99.90;;;;;;5064067;28;20032;-77
2023/08/10 07:26:54;;;;;;;0.10;0.10;;;17.90;99.90;;;;;;5097638;28;20626;-80
2023/08/10 07:29:20;;;;;;;0.10;0.10;;;17.30;99.90;;;;;;5063890;28;20079;-78
2023/08/10 07:31:46;;;;;;;0.10;0.10;;;17.70;99.90;;;;;;5081714;28;20297;-79
2023/08/10 07:34:13;;;;;;;0.15;0.15;;;17.70;99.90;;;;;;5081772;28;20073;-77
2023/08/10 07:36:39;;;;;;;0.10;0.10;;;18.30;99.90;;;;;;5082146;28;20110;-83
2023/08/10 07:39:05;;;;;;;0.10;0.10;;;17.70;99.90;;;;;;5064102;28;20020;-77
2023/08/10 07:41:31;;;;;;;0.10;0.10;;;17.80;99.90;;;;;;5081755;28;20020;-79
2023/08/10 07:43:57;;;;;;;2.20;1.42;;;17.80;99.90;;;;;;5082164;28;20244;-80
2023/08/10 07:46:24;;;;;;;0.13;0.13;;;18.00;99.90;;;;;;5064298;28;20020;-82
2023/08/10 07:48:50;;;;;;;0.10;0.10;;;17.80;99.90;;;;;;5065286;28;20024;-79
2023/08/10 07:51:16;;;;;;;1.75;1.65;;;17.80;99.90;;;;;;5081896;28;20020;-77
2023/08/10 07:53:42;;;;;;;0.10;0.10;;;17.80;99.90;;;;;;5082179;28;20078;-84
2023/08/10 07:56:08;;;;;;;7.13;1.17;;;18.10;99.90;;;;;;5082068;28;20201;-80
2023/08/10 07:58:34;;;;;;;0.10;0.10;;;17.40;99.90;;;;;;5081146;28;20023;-81
2023/08/10 08:01:01;;;;;;;4.60;1.50;;;;;;;;;;5082965;28;20248;-76
2023/08/10 08:03:26;;;;;;;0.40;0.40;;;19.00;99.90;;;;;;5082108;28;20495;-76
2023/08/10 08:05:52;;;;;;;0.10;0.10;;;19.10;99.90;;;;;;5065228;28;20523;-76
2023/08/10 08:08:18;;;;;;;0.10;0.10;;;19.40;99.90;;;;;;5083375;28;20036;-79
2023/08/10 08:10:44;;;;;;;1.98;1.85;;;19.40;99.90;;;;;;5064774;28;20016;-77
2023/08/10 08:13:10;;;;;;;0.10;0.10;;;19.50;99.90;;;;;;5082199;28;20031;-77
2023/08/10 08:15:38;;;;;;;0.10;0.10;;;;;;;;;;5080557;28;20031;-77
2023/08/10 08:18:40;;;;;;;1.60;1.55;;;19.40;99.90;;;;;;5063378;28;20042;-77
2023/08/10 08:21:06;;;;;;;0.40;0.40;;;;;;;;;;5081679;28;20047;-77
2023/08/10 08:23:32;;;;;;;0.10;0.10;;;19.10;99.90;;;;;;5081972;28;20339;-77
2023/08/10 08:25:58;;;;;;;0.20;0.20;;;19.50;99.90;;;;;;5082172;28;20107;-77
2023/08/10 08:28:24;;;;;;;0.10;0.10;;;19.30;99.90;;;;;;5082420;28;20020;-76
2023/08/10 08:30:51;;;;;;;0.10;0.10;;;20.10;99.90;;;;;;5081010;28;20012;-78
2023/08/10 08:33:18;;;;;;;0.22;0.22;;;19.90;99.90;;;;;;5062901;28;20039;-78
2023/08/10 08:35:47;;;;;;;2.85;1.40;;;20.30;99.90;;;;;;5080502;28;20044;-77
2023/08/10 08:38:17;;;;;;;0.17;0.17;;;20.40;99.90;;;;;;5062362;28;20020;-77
2023/08/10 08:40:44;;;;;;;0.40;0.40;;;18.40;99.90;;;;;;5062126;28;20059;-77
2023/08/10 08:43:11;;;;;;;1.23;1.13;;;20.70;99.90;;;;;;5080291;28;20633;-78
2023/08/10 08:45:40;;;;;;;0.10;0.10;;;21.00;99.90;;;;;;5081087;28;20623;-77
2023/08/10 08:48:07;;;;;;;0.10;0.10;;;21.20;99.90;;;;;;5081395;28;20238;-77
2023/08/10 08:50:36;;;;;;;0.10;0.10;;;21.70;99.90;;;;;;5061864;28;20402;-78
2023/08/10 08:53:11;;;;;;;0.10;0.10;;;19.20;99.90;;;;;;5062346;28;20709;-78
2023/08/10 08:55:40;;;;;;;0.63;0.63;;;22.50;99.90;;;;;;5079395;28;20020;-83
2023/08/10 08:58:06;;;;;;;0.10;0.10;;;22.70;99.90;;;;;;5081339;28;20051;-77
2023/08/10 09:00:33;;;;;;;0.10;0.10;;;23.30;99.90;;;;;;5080317;28;20040;-77
2023/08/10 09:03:00;;;;;;;0.90;0.90;;;22.90;99.90;;;;;;5081627;28;20321;-77
2023/08/10 09:05:26;;;;;;;0.20;0.20;;;23.40;99.90;;;;;;5082013;28;20039;-76
2023/08/10 09:07:53;;;;;;;0.10;0.10;;;23.30;99.90;;;;;;5063099;28;20589;-75
2023/08/10 09:10:21;;;;;;;0.10;0.10;;;22.20;99.90;;;;;;5080071;28;20020;-80
2023/08/10 09:12:48;;;;;;;0.00;0.00;;;22.20;99.90;;;;;;5080869;28;20012;-77
2023/08/10 09:15:16;;;;;;;0.85;0.85;;;22.10;99.90;;;;;;5061355;28;20236;-80
2023/08/10 09:17:51;;;;;;;0.10;0.10;;;22.10;99.90;;;;;;5061705;28;20194;-80
2023/08/10 09:20:28;;;;;;;1.00;1.00;;;20.50;99.90;;;;;;5079382;28;20309;-79
2023/08/10 09:22:56;;;;;;;0.10;0.10;;;22.50;99.90;;;;;;5080754;28;20058;-83
2023/08/10 09:25:23;;;;;;;0.15;0.15;;;22.30;99.90;;;;;;5079656;28;20536;-76
2023/08/10 09:27:51;;;;;;;0.10;0.10;;;22.00;99.90;;;;;;5061469;28;20286;-78
2023/08/10 09:30:18;;;;;;;0.10;0.10;;;22.20;99.90;;;;;;5079424;28;20450;-80
2023/08/10 09:32:44;;;;;;;0.68;0.68;;;20.40;99.90;;;;;;5061979;28;20023;-79
2023/08/10 09:35:16;;;;;;;0.10;0.10;;;22.10;99.90;;;;;;5079634;28;20035;-87
2023/08/10 09:37:43;;;;;;;0.10;0.10;;;22.20;99.90;;;;;;5078850;28;20019;-85
2023/08/10 09:40:11;;;;;;;0.17;0.17;;;22.10;99.90;;;;;;5081146;28;20085;-82
2023/08/10 09:42:41;;;;;;;0.10;0.10;;;22.00;99.90;;;;;;5079570;28;20297;-80
2023/08/10 09:45:13;;;;;;;0.20;0.20;;;22.00;99.90;;;;;;5080404;28;20027;-80
2023/08/10 09:47:41;;;;;;;0.10;0.10;;;22.00;99.90;;;;;;5079835;28;20443;-76
2023/08/10 09:50:15;;;;;;;0.32;0.32;;;22.00;99.90;;;;;;5079688;28;20077;-77
2023/08/10 09:52:42;;;;;;;0.10;0.10;;;22.10;99.90;;;;;;5062271;28;20645;-76
2023/08/10 09:55:09;;;;;;;0.20;0.20;;;22.20;99.90;;;;;;5062518;28;20477;-80
2023/08/10 09:57:45;;;;;;;0.10;0.10;;;22.50;99.90;;;;;;5080067;28;20316;-76
2023/08/10 10:00:22;;;;;;;0.17;0.17;;;22.70;99.90;;;;;;5079051;28;20023;-77
2023/08/10 10:02:48;;;;;;;0.20;0.20;;;;;;;;;;5080267;28;20393;-78
2023/08/10 10:05:19;;;;;;;0.10;0.10;;;23.10;99.90;;;;;;5078880;28;20486;-79
2023/08/10 10:07:46;;;;;;;0.22;0.22;;;23.40;99.90;;;;;;5079234;28;20066;-77
2023/08/10 10:10:15;;;;;;;0.20;0.20;;;20.80;99.10;;;;;;5078769;28;20016;-82
2023/08/10 10:12:48;;;;;;;0.10;0.10;;;23.70;99.10;;;;;;5078547;28;20035;-77
2023/08/10 10:15:15;;;;;;;0.17;0.17;;;24.40;98.60;;;;;;5079483;28;20017;-79
2023/08/10 10:17:42;;;;;;;1.63;0.55;;;;;;;;;;5061695;28;20046;-78
2023/08/10 10:20:11;;;;;;;0.28;0.28;;;23.90;97.30;;;;;;5078930;28;20023;-78
2023/08/10 10:22:38;;;;;;;0.10;0.10;;;23.60;99.00;;;;;;5060566;28;20522;-77
2023/08/10 10:25:04;;;;;;;0.10;0.10;;;23.50;99.30;;;;;;5079092;28;20126;-77
2023/08/10 10:27:40;;;;;;;1.45;0.77;;;23.50;99.50;;;;;;5079600;28;20040;-81
2023/08/10 10:30:16;;;;;;;0.10;0.10;;;23.40;99.00;;;;;;5060627;28;20123;-80
2023/08/10 10:32:46;;;;;;;0.20;0.20;;;23.80;99.40;;;;;;5060372;28;20042;-78
2023/08/10 10:35:15;;;;;;;0.10;0.10;;;23.70;98.00;;;;;;5078922;28;20031;-76
2023/08/10 10:37:41;;;;;;;0.10;0.10;;;24.00;97.40;;;;;;5079877;28;20623;-76
2023/08/10 10:40:18;;;;;;;0.10;0.10;;;24.80;96.70;;;;;;5060257;28;20320;-82
2023/08/10 10:43:03;;;;;;;0.20;0.20;;;24.70;95.70;;;;;;5060537;28;20032;-82
2023/08/10 10:45:42;;;;;;;0.10;0.10;;;24.90;94.70;;;;;;5078615;28;20023;-82
2023/08/10 10:48:13;;;;;;;0.10;0.10;;;25.00;94.30;;;;;;5079214;28;20213;-80
2023/08/10 10:50:39;;;;;;;0.08;0.08;;;25.10;94.00;;;;;;5078619;28;20021;-78
2023/08/10 10:53:11;;;;;;;0.10;0.10;;;25.10;93.60;;;;;;5079224;28;20232;-80
2023/08/10 10:55:43;;;;;;;0.10;0.10;;;25.10;93.50;;;;;;5061052;28;20240;-78
2023/08/10 10:58:14;;;;;;;0.33;0.33;;;24.90;94.30;;;;;;5078264;28;20032;-76
2023/08/10 11:00:41;;;;;;;0.10;0.10;;;25.10;93.60;;;;;;5078881;28;20463;-82
2023/08/10 11:03:13;;;;;;;0.10;0.10;;;24.50;93.90;;;;;;5079353;28;20261;-78
2023/08/10 11:05:39;;;;;;;0.10;0.10;;;24.40;94.90;;;;;;5061397;28;20047;-76
2023/08/10 11:08:06;;;;;;;0.70;0.68;;;24.00;95.30;;;;;;5081939;28;20021;-78
2023/08/10 11:10:37;;;;;;;0.10;0.10;;;23.40;95.80;;;;;;5078490;28;20589;-89
2023/08/10 11:13:05;;;;;;;0.10;0.10;;;23.40;95.90;;;;;;5080226;28;20054;-89
2023/08/10 11:15:31;;;;;;;0.10;0.10;;;20.70;94.50;;;;;;5061839;28;20044;-77
2023/08/10 11:18:08;;;;;;;0.10;0.10;;;23.40;95.00;;;;;;5077995;28;20390;-78
2023/08/10 11:20:42;;;;;;;0.73;0.63;;;20.70;94.10;;;;;;5057995;28;20032;-84
2023/08/10 11:23:11;;;;;;;0.08;0.08;;;23.60;94.90;;;;;;5078441;28;20036;-76
2023/08/10 11:25:54;;;;;;;0.32;0.32;;;20.20;93.70;;;;;;5078889;28;20531;-76
2023/08/10 11:28:21;;;;;;;0.75;0.75;;;23.70;94.00;;;;;;5078538;28;20028;-86
2023/08/10 11:30:53;;;;;;;0.30;0.30;;;23.80;93.20;;;;;;5060437;28;20027;-77
2023/08/10 11:33:19;;;;;;;0.10;0.10;;;24.00;93.20;;;;;;5060653;28;20035;-86
2023/08/10 11:35:52;;;;;;;0.10;0.10;;;24.20;93.10;;;;;;5078493;28;20016;-77
2023/08/10 11:38:28;;;;;;;;;;;24.30;93.20;;;;;;5079972;28;20320;-79
2023/08/10 11:40:57;;;;;;;0.00;0.00;;;25.20;93.70;;;;;;5065697;28;20062;-80
2023/08/10 11:43:25;;;;;;;0.22;0.22;;;26.40;92.50;;;;;;5083673;28;20109;-78
2023/08/10 11:45:54;;;;;;;0.10;0.10;;;26.80;91.70;;;;;;5064108;28;20377;-82
2023/08/10 11:48:20;;;;;;;0.00;0.00;;;27.60;89.30;;;;;;5063256;28;20024;-81
2023/08/10 11:50:46;;;;;;;2.33;2.13;;;28.10;90.90;;;;;;5064241;28;20091;-77
2023/08/10 11:53:15;;;;;;;0.17;0.17;;;28.70;90.50;;;;;;5064414;28;20088;-76
2023/08/10 11:55:46;;;;;;;2.10;0.50;;;28.90;85.20;;;;;;5064188;28;20077;-76
2023/08/10 11:58:16;;;;;;;0.10;0.10;;;29.50;85.50;;;;;;5064442;28;20044;-78
2023/08/10 12:00:44;;;;;;;1.55;0.63;;;29.90;82.50;;;;;;5052418;28;20075;-76
2023/08/10 12:03:25;;;;;;;0.10;0.10;;;29.90;80.70;;;;;;5039861;28;20581;-78
2023/08/10 12:06:07;;;;;;;0.30;0.30;;;28.80;78.60;;;;;;5043597;28;20017;-79
2023/08/10 12:08:36;;;;;;;0.10;0.10;;;28.60;79.30;;;;;;5040142;28;20013;-80
2023/08/10 12:11:07;;;;;;;0.40;0.15;;;29.20;80.90;;;;;;5040792;28;20021;-77
2023/08/10 12:13:49;;;;;;;6.70;1.83;;;28.10;80.30;;;;;;5040031;28;20025;-79
2023/08/10 12:16:20;;;;;;;2.08;1.48;;;27.30;80.30;;;;;;5040646;28;20667;-79
2023/08/10 12:18:46;;;;;;;0.70;0.70;;;26.90;81.80;;;;;;5041461;28;20025;-76
2023/08/10 12:21:13;;;;;;;0.13;0.10;;;26.60;81.90;;;;;;5040371;28;20049;-77
2023/08/10 12:23:39;;;;;;;0.00;0.00;;;26.10;81.70;;;;;;5042093;28;20513;-76
2023/08/10 12:26:05;;;;;;;0.00;0.00;;;25.90;82.30;;;;;;5040975;28;20033;-76
2023/08/10 12:28:30;;;;;;;0.00;0.00;;;25.40;84.10;;;;;;5040941;28;20016;-76
2023/08/10 12:30:56;;;;;;;1.17;1.08;;;25.30;82.90;;;;;;5039222;28;20025;-77
2023/08/10 12:33:23;;;;;;;3.08;2.83;;;25.20;84.70;;;;;;5040248;28;20013;-76
2023/08/10 12:35:50;;;;;;;1.65;1.35;;;24.80;86.40;;;;;;5040616;28;20087;-77
2023/08/10 12:38:17;;;;;;;0.73;0.73;;;23.50;86.80;;;;;;5040358;28;20021;-80
2023/08/10 12:40:44;;;;;;;0.10;0.10;;;;;;;;;;5040377;28;20024;-78
2023/08/10 12:43:10;;;;;;;0.08;0.08;;;24.20;87.40;;;;;;5040499;28;20433;-79
2023/08/10 12:45:37;;;;;;;0.00;0.00;;;24.00;89.60;;;;;;5040632;28;20013;-78
2023/08/10 12:48:07;;;;;;;0.10;0.10;;;23.70;90.10;;;;;;5040456;28;20383;-80
2023/08/10 12:50:33;;;;;;;0.10;0.10;;;23.40;90.60;;;;;;5038502;28;20715;-79
2023/08/10 12:52:59;;;;;;;0.10;0.10;;;;;;;;;;5039983;28;20029;-82
2023/08/10 12:55:25;;;;;;;0.10;0.10;;;;;;;;;;5038548;28;20027;-76